• Join FlightAware (Why Join?)
  • Login
  • US Flag 
01:11AM EDT


 

Airport Tracker/Info


-or-


 

Live Flight TrackerFlight Track Log ✈ SKW4540 ✈ 31-Aug-2013 ✈ KSLC - KMSO

Flight Track Log - Related Links

Times and Time Zones

All times are in EDT time to prevent confusion due to time zone crossing. See the SKW4540 flight status page for this flight to view local times or setup timezone preferences in your user account.

Time Position Orientation Groundspeed Altitude Reporting Facility
EDT Latitude Longitude Course Direction KTS MPH feet Rate Location/Type
12:04PM 40.7647 -111.9739 29° Northeast 193 222 5,000  Level Salt Lake Center
12:05PM 40.7353 -112.0269 234° Southwest 219 252 7,100 1,680 Climbing Salt Lake Center
12:06PM 40.7769 -112.0983 308° West 263 303 8,600 1,620 Climbing Salt Lake Center
12:07PM 40.8328 -112.1650 318° Northwest 269 310 10,500 1,740 Climbing Salt Lake Center
12:08PM 41.1662 -111.8866 50° Northeast  Level FlightAware Approximate
12:08PM 40.8939 -112.2314 321° Northwest 286 329 12,300  Level Salt Lake Center
12:09PM 41.2599 -111.7884 29° Northeast  Level FlightAware Approximate
12:09PM 40.9656 -112.2047 16° North 287 330 14,200  Level Salt Lake Center
12:10PM 41.0197 -112.1244 48° Northeast 290 334 16,000 1,440 Climbing Salt Lake Center
12:11PM 41.0756 -112.0408 48° Northeast 304 350 17,200 1,020 Climbing Salt Lake Center
12:12PM 41.1353 -111.9492 49° Northeast 321 369 18,200 1,140 Climbing Salt Lake Center
12:13PM 41.1975 -111.8556 49° Northeast 333 383 19,600 1,380 Climbing Salt Lake Center
12:14PM 41.2908 -111.7794 31° Northeast 329 379 21,100 1,200 Climbing Salt Lake Center
12:15PM 41.3764 -111.7603 10° North 322 371 22,100 840 Climbing Salt Lake Center
12:16PM 41.4667 -111.7933 345° North 336 387 22,900 900 Climbing Salt Lake Center
12:17PM 41.5597 -111.8278 345° North 345 397 24,000 1,200 Climbing Salt Lake Center
12:18PM 41.6483 -111.8625 344° North 334 384 25,400 1,080 Climbing Salt Lake Center
12:19PM 41.7350 -111.8953 344° North 326 375 26,300 780 Climbing Salt Lake Center
12:20PM 41.8414 -111.9372 344° North 333 383 27,100 720 Climbing Salt Lake Center
12:21PM 41.9328 -111.9717 344° North 340 391 27,800 420 Climbing Salt Lake Center
12:22PM 42.0264 -112.0072 344° North 349 402 28,000 60 Climbing Salt Lake Center
12:23PM 42.1219 -112.0450 344° North 357 411 28,000  Level Salt Lake Center
12:24PM 42.2167 -112.0817 344° North 354 407 28,000  Level Salt Lake Center
12:25PM 42.3092 -112.1192 343° North 349 402 28,000  Level Salt Lake Center
12:26PM 42.4181 -112.1625 344° North 341 392 28,000  Level Salt Lake Center
12:27PM 42.5067 -112.1967 344° North 334 384 28,000  Level Salt Lake Center
12:28PM 42.5961 -112.2294 345° North 333 383 28,000  Level Salt Lake Center
12:29PM 42.6853 -112.2606 346° North 332 382 28,000  Level Salt Lake Center
12:30PM 42.7850 -112.3033 343° North 337 388 28,000  Level Salt Lake Center
12:31PM 42.8719 -112.3375 344° North 339 390 28,000  Level Salt Lake Center
12:33PM 42.9733 -112.3778 344° North 339 390 28,000  Level Salt Lake Center
12:34PM 43.0617 -112.4147 343° North 344 396 28,000  Level Salt Lake Center
12:35PM 43.1656 -112.4572 343° North 348 400 28,000  Level Salt Lake Center
12:36PM 43.2561 -112.4936 344° North 352 405 28,000  Level Salt Lake Center
12:37PM 43.3631 -112.5375 343° North 357 411 28,000  Level Salt Lake Center
12:38PM 43.4544 -112.5772 342° North 358 412 28,000  Level Salt Lake Center
12:39PM 43.5586 -112.6183 344° North 352 405 28,000  Level Salt Lake Center
12:40PM 43.6483 -112.6567 343° North 352 405 28,000  Level Salt Lake Center
12:41PM 43.7369 -112.6933 343° North 348 400 28,000  Level Salt Lake Center
12:42PM 43.8397 -112.7353 344° North 345 397 28,000  Level Salt Lake Center
12:43PM 43.9289 -112.7728 343° North 347 399 28,000  Level Salt Lake Center
12:44PM 44.0325 -112.8161 343° North 347 399 28,000  Level Salt Lake Center
12:45PM 44.1183 -112.8506 344° North 341 392 28,000  Level Salt Lake Center
12:46PM 44.2189 -112.8944 343° North 339 390 28,000  Level Salt Lake Center
12:47PM 44.3047 -112.9303 343° North 338 389 28,000  Level Salt Lake Center
12:48PM 44.4050 -112.9714 344° North 336 387 28,000  Level Salt Lake Center
12:49PM 44.4906 -113.0092 343° North 336 387 28,000  Level Salt Lake Center
12:50PM 44.5769 -113.0450 344° North 336 387 28,000  Level Salt Lake Center
12:51PM 44.6783 -113.0889 343° North 338 389 28,000  Level Salt Lake Center
12:52PM 44.7661 -113.1258 343° North 340 391 28,000  Level Salt Lake Center
12:53PM 44.8692 -113.1706 343° North 343 395 28,000  Level Salt Lake Center
12:54PM 44.9575 -113.2078 343° North 344 396 28,000  Level Salt Lake Center
12:55PM 45.0622 -113.2531 343° North 348 400 28,000  Level Salt Lake Center
12:56PM 45.1511 -113.2922 343° North 349 402 28,000  Level Salt Lake Center
12:57PM 45.2564 -113.3375 343° North 350 403 28,000  Level Salt Lake Center
12:58PM 45.3461 -113.3767 343° North 352 405 28,000  Level Salt Lake Center
12:59PM 45.4500 -113.4222 343° North 350 403 28,000  Level Salt Lake Center
01:00PM 45.5378 -113.4586 344° North 345 397 28,000  Level Salt Lake Center
01:01PM 45.6236 -113.5000 341° North 341 392 28,000  Level Salt Lake Center
01:02PM 45.7250 -113.5442 343° North 341 392 28,000 -720 Level Salt Lake Center
01:04PM 45.8111 -113.5825 343° North 338 389 26,600 -1,620 Descending Salt Lake Center
01:05PM 45.9075 -113.6231 344° North 332 382 24,700 -1,860 Descending Salt Lake Center
01:06PM 45.9933 -113.6614 343° North 326 375 22,800 -1,860 Descending Salt Lake Center
01:07PM 46.0789 -113.6989 343° North 323 372 21,000 -1,860 Descending Salt Lake Center
01:08PM 46.1706 -113.7439 341° North 308 354 19,100 -1,620 Descending Salt Lake Center
01:09PM 46.2500 -113.7775 344° North 301 346 17,700 -1,440 Descending Salt Lake Center
01:10PM 46.3225 -113.8144 341° North 281 323 16,200 -1,320 Descending Salt Lake Center
01:11PM 46.3989 -113.8489 343° North 268 308 15,000 -1,080 Descending Salt Lake Center
01:12PM 46.4719 -113.8281 11° North 269 310 14,000 -1,080 Descending Salt Lake Center
01:13PM 46.5461 -113.8058 12° North 256 295 12,900 -1,020 Descending Salt Lake Center
01:14PM 46.6144 -113.7878 10° North 251 289 11,900 -1,140 Descending Salt Lake Center
01:15PM 46.6869 -113.7694 10° North 248 285 10,600 -1,260 Descending Salt Lake Center
01:16PM 46.7497 -113.7772 355° North 241 277 9,400 -1,080 Descending Salt Lake Center
01:17PM 46.7836 -113.8517 304° West 223 257 8,500 -540 Descending Salt Lake Center
01:18PM 46.8244 -113.9267 309° West 215 247 8,400 -1,200 Descending Salt Lake Center
01:19PM 46.8508 -113.9792 306° West 163 188 6,100 -2,100 Descending Salt Lake Center
01:20PM 46.8819 -114.0336 310° West 162 186 4,100 -1,440 Descending Salt Lake Center
01:21PM 46.9100 -114.0817 311° West 158 182 3,200 -900 Descending Salt Lake Center